If you wish to contribute or participate in the discussions about articles you are invited to join SKYbrary as a registered user

 Actions

Baker Lake Airport

From SKYbrary Wiki

CYBK
Airport
ICAO: CYBK – IATA: YBK
Summary
Name Baker Lake Airport
Region North America
Territory Canada CA.gif
Location Baker Lake, Nunavut
Serving Baker Lake
Elevation 18.593 m <br />61 ft18.593 m <br />
Coordinates 64° 17' 56.00" N, 96° 4' 40.01" W
Runways
Designator Length Width Surface ROPS
16T/34T 1280 m4,199.475 ft <br /> 30 m98.425 ft <br /> GVL /


METAR
Observation CYBK 230800Z VRB02KT 15SM FEW015 M06/M08 A3007 RMK SC1 SLP187
Station Baker Lake, N. W. T.
Date/Time 23 October 2021 08:00:00
Wind direction °
Wind speed 02 kts
Lowest cloud amount few clouds
Temperature
Dew point
Humidity 85%
QNH hPa
Weather condition n/a

Baker Lake Airport, is located 3 nm5,556 m <br />5.556 km <br />18,228.346 ft <br /> southwest of Baker Lake, Nunavut, Canada. It is operated by the government of Nunavut.

Climatology

Subarctic climate (Köppen climate classification Dfc)

Maps

Terrain

Loading map...

Airport Layout

Loading map...


Accidents & Serious Incidents at or in vicinity of CYBK

None on SKYbrary